Time;durP1;ratioP1;P1;durP2;ratioP2;P2;SDS_P1;SDS_P2;PMS_P1;PMS_P2;Temp;Humidity;BMP_temperature;BMP_pressure;BME280_temperature;BME280_humidity;BME280_pressure;Samples;Min_cycle;Max_cycle;Signal;HPM_P1;HPM_P2
2021/08/01 00:01:57;;;;;;;17.60;10.20;;;;;;;16.56;100.00;94785.09;5048730;28;20089;-77
2021/08/01 00:04:22;;;;;;;22.10;10.20;;;;;;;16.70;100.00;94788.28;5037526;28;20423;-77
2021/08/01 00:06:48;;;;;;;19.65;10.10;;;;;;;16.66;99.83;94784.72;5042540;28;20068;-77
2021/08/01 00:09:16;;;;;;;18.35;9.43;;;;;;;16.55;100.00;94772.94;5037761;28;20041;-77
2021/08/01 00:11:42;;;;;;;21.38;10.90;;;;;;;16.48;100.00;94773.47;5040605;28;20038;-78
2021/08/01 00:14:07;;;;;;;20.73;10.73;;;;;;;16.65;100.00;94783.19;5033065;28;20096;-78
2021/08/01 00:16:33;;;;;;;20.13;10.18;;;;;;;16.70;100.00;94780.31;5035867;28;20119;-78
2021/08/01 00:18:58;;;;;;;17.63;10.07;;;;;;;16.72;99.94;94793.25;5046862;28;20123;-77
2021/08/01 00:21:24;;;;;;;17.75;10.52;;;;;;;16.65;100.00;94788.50;5035147;28;20053;-78
2021/08/01 00:23:50;;;;;;;16.25;10.07;;;;;;;16.71;100.00;94800.47;5039797;28;20044;-77
2021/08/01 00:26:16;;;;;;;19.25;10.15;;;;;;;16.75;100.00;94793.41;5038289;28;20411;-78
2021/08/01 00:28:41;;;;;;;19.13;10.40;;;;;;;16.62;100.00;94794.44;5053018;28;20037;-77
2021/08/01 00:31:07;;;;;;;17.08;10.38;;;;;;;16.89;100.00;94813.63;5043251;28;20041;-77
2021/08/01 00:33:32;;;;;;;18.98;10.25;;;;;;;16.94;99.75;94800.91;5045879;28;20055;-77
2021/08/01 00:35:58;;;;;;;18.65;10.43;;;;;;;16.82;100.00;94792.09;5041886;28;20049;-77
2021/08/01 00:38:24;;;;;;;20.83;12.35;;;;;;;16.53;100.00;94780.44;5055094;28;20052;-77
2021/08/01 00:40:49;;;;;;;26.67;12.90;;;;;;;16.42;100.00;94786.16;5044429;28;20067;-77
2021/08/01 00:43:15;;;;;;;20.88;11.68;;;;;;;16.59;100.00;94781.81;5035543;28;20049;-77
2021/08/01 00:45:41;;;;;;;20.05;12.00;;;;;;;16.56;100.00;94774.50;5043157;28;20510;-77
2021/08/01 00:48:11;;;;;;;28.75;12.00;;;;;;;16.56;100.00;94769.19;5044431;28;20045;-77
2021/08/01 00:50:37;;;;;;;23.75;12.23;;;;;;;16.52;100.00;94768.25;5050907;28;20033;-78
2021/08/01 00:53:06;;;;;;;24.67;12.40;;;;;;;16.57;100.00;94770.75;5053788;28;20037;-76
2021/08/01 00:55:31;;;;;;;22.95;12.60;;;;;;;16.55;100.00;94767.63;5044182;28;20042;-76
2021/08/01 00:57:57;;;;;;;24.80;13.32;;;;;;;16.55;100.00;94757.00;5043746;28;20460;-76
2021/08/01 01:00:36;;;;;;;25.38;13.35;;;;;;;16.56;100.00;94763.88;5039456;28;20505;-76
2021/08/01 01:03:25;;;;;;;22.58;13.10;;;;;;;16.58;100.00;94756.38;5038877;28;20045;-76
2021/08/01 01:05:55;;;;;;;20.02;12.15;;;;;;;16.58;100.00;94761.69;5039874;28;20068;-77
2021/08/01 01:08:49;;;;;;;21.27;12.73;;;;;;;16.60;100.00;94759.47;5045822;28;20091;-77
2021/08/01 01:11:18;;;;;;;20.73;11.98;;;;;;;16.59;100.00;94757.91;5049971;28;20052;-76
2021/08/01 01:13:51;;;;;;;20.73;11.68;;;;;;;16.59;100.00;94752.59;5039710;28;20124;-78
2021/08/01 01:16:17;;;;;;;22.90;12.95;;;;;;;16.64;100.00;94752.41;5039088;28;20487;-77
2021/08/01 01:18:48;;;;;;;21.25;11.90;;;;;;;16.51;100.00;94745.50;5039823;28;20044;-76
2021/08/01 01:21:32;;;;;;;21.35;11.55;;;;;;;16.41;100.00;94744.75;5038043;28;20056;-77
2021/08/01 01:24:07;;;;;;;20.08;8.65;;;;;;;16.06;97.83;94739.72;5057261;28;20049;-77
2021/08/01 01:26:51;;;;;;;24.33;9.63;;;;;;;15.95;100.00;94743.84;5058254;28;20490;-77
2021/08/01 01:29:38;;;;;;;15.83;8.90;;;;;;;15.73;99.45;94753.63;5055587;28;20045;-75
2021/08/01 01:32:11;;;;;;;17.92;8.82;;;;;;;15.61;99.36;94742.91;5056212;28;20321;-76
2021/08/01 01:34:36;;;;;;;23.08;10.20;;;;;;;15.42;100.00;94730.06;5053383;28;20410;-77
2021/08/01 01:37:05;;;;;;;20.17;9.55;;;;;;;15.18;99.89;94714.72;5058667;28;20037;-76
2021/08/01 01:39:34;;;;;;;20.25;9.63;;;;;;;15.05;100.00;94696.03;5046949;28;20041;-77
2021/08/01 01:42:01;;;;;;;20.33;10.35;;;;;;;14.84;100.00;94668.69;5039446;28;20107;-76
2021/08/01 01:44:28;;;;;;;18.52;9.48;;;;;;;14.41;100.00;94637.78;5047135;28;20485;-76
2021/08/01 01:46:55;;;;;;;18.85;10.75;;;;;;;14.26;100.00;94623.19;5064186;28;20029;-77
2021/08/01 01:49:21;;;;;;;22.95;12.25;;;;;;;14.16;100.00;94634.88;5044985;28;20098;-76
2021/08/01 01:51:47;;;;;;;20.83;11.70;;;;;;;13.99;100.00;94633.81;5050890;28;20041;-76
2021/08/01 01:54:13;;;;;;;24.58;11.43;;;;;;;13.94;100.00;94644.53;5057784;28;20048;-76
2021/08/01 01:56:40;;;;;;;26.15;12.00;;;;;;;13.95;100.00;94672.53;5038661;28;20570;-76
2021/08/01 01:59:06;;;;;;;30.75;11.93;;;;;;;13.96;100.00;94674.06;5037479;28;20575;-76
2021/08/01 02:01:32;;;;;;;21.63;11.10;;;;;;;13.87;100.00;94675.94;5046800;28;20051;-78
2021/08/01 02:03:58;;;;;;;18.73;10.98;;;;;;;13.91;100.00;94655.72;5047366;28;20033;-77
2021/08/01 02:06:23;;;;;;;23.67;12.75;;;;;;;13.78;100.00;94651.38;5045576;28;20581;-77
2021/08/01 02:09:39;;;;;;;27.77;12.48;;;;;;;13.67;100.00;94635.03;5038981;28;20197;-76
2021/08/01 02:12:07;;;;;;;23.83;13.40;;;;;;;13.59;100.00;94638.44;5049343;28;20052;-77
2021/08/01 02:14:40;;;;;;;26.17;12.50;;;;;;;13.40;100.00;94625.50;5041852;28;20041;-77
2021/08/01 02:17:10;;;;;;;24.50;13.18;;;;;;;13.44;100.00;94623.81;5039949;28;20053;-77
2021/08/01 02:19:39;;;;;;;26.40;13.25;;;;;;;13.40;100.00;94630.78;5037422;28;20124;-77
2021/08/01 02:22:06;;;;;;;26.42;13.38;;;;;;;13.34;100.00;94628.28;5041565;28;20121;-75
2021/08/01 02:24:34;;;;;;;29.27;14.63;;;;;;;13.32;100.00;94641.00;5044362;28;20115;-76
2021/08/01 02:27:03;;;;;;;22.58;13.27;;;;;;;13.18;100.00;94651.69;5041924;28;20049;-77
2021/08/01 02:29:31;;;;;;;34.13;13.32;;;;;;;13.23;100.00;94664.00;5045740;28;20045;-77
2021/08/01 02:31:58;;;;;;;31.75;14.48;;;;;;;13.26;100.00;94673.94;5054564;28;20044;-76
2021/08/01 02:34:25;;;;;;;25.77;13.43;;;;;;;13.34;100.00;94675.06;5050593;28;20061;-75
2021/08/01 02:36:53;;;;;;;21.23;12.25;;;;;;;13.33;100.00;94687.50;5039407;28;20056;-77
2021/08/01 02:39:21;;;;;;;27.33;14.77;;;;;;;13.46;100.00;94692.97;5065942;28;20047;-76
2021/08/01 02:41:47;;;;;;;25.35;13.77;;;;;;;13.51;100.00;94671.72;5043504;28;20060;-77
2021/08/01 02:44:20;;;;;;;24.67;13.00;;;;;;;13.51;100.00;94637.34;5044063;28;20495;-78
2021/08/01 02:46:47;;;;;;;24.20;12.65;;;;;;;13.42;100.00;94628.59;5033713;28;20056;-76
2021/08/01 02:49:19;;;;;;;16.35;11.55;;;;;;;13.31;100.00;94615.66;5051336;28;20075;-77
2021/08/01 02:51:48;;;;;;;24.55;12.98;;;;;;;13.36;100.00;94632.50;5040347;28;20111;-76
2021/08/01 02:54:15;;;;;;;28.13;13.32;;;;;;;13.29;100.00;94625.78;5047997;28;20036;-77
2021/08/01 02:56:41;;;;;;;29.05;13.93;;;;;;;13.31;100.00;94628.88;5054392;28;20049;-76
2021/08/01 02:59:10;;;;;;;25.38;12.45;;;;;;;13.28;100.00;94615.50;5038296;28;20045;-76
2021/08/01 03:01:36;;;;;;;25.85;14.80;;;;;;;13.26;100.00;94621.09;5041531;28;20037;-76
2021/08/01 03:04:04;;;;;;;26.42;13.38;;;;;;;13.29;100.00;94625.78;5048442;28;20114;-77
2021/08/01 03:06:33;;;;;;;23.40;13.38;;;;;;;13.33;100.00;94637.28;5042019;28;20637;-76
2021/08/01 03:09:04;;;;;;;29.95;13.63;;;;;;;13.29;100.00;94641.63;5045688;28;20053;-77
2021/08/01 03:11:34;;;;;;;28.25;13.00;;;;;;;13.30;100.00;94637.91;5053352;28;20091;-76
2021/08/01 03:14:01;;;;;;;28.55;14.00;;;;;;;13.27;100.00;94637.72;5045447;28;20044;-77
2021/08/01 03:16:27;;;;;;;28.58;16.17;;;;;;;13.25;100.00;94624.81;5045488;28;20048;-76
2021/08/01 03:18:52;;;;;;;22.38;14.25;;;;;;;13.22;100.00;94641.28;5036929;28;20559;-77
2021/08/01 03:21:18;;;;;;;26.05;14.20;;;;;;;13.27;100.00;94646.41;5040680;28;20723;-76
2021/08/01 03:23:43;;;;;;;28.05;13.48;;;;;;;13.29;100.00;94641.63;5049906;28;20047;-77
2021/08/01 03:26:09;;;;;;;27.20;14.65;;;;;;;13.30;100.00;94648.47;5046806;28;20530;-75
2021/08/01 03:28:34;;;;;;;28.60;13.52;;;;;;;13.45;100.00;94683.50;5048750;28;20045;-76
2021/08/01 03:31:00;;;;;;;21.60;12.38;;;;;;;13.57;100.00;94788.66;5037525;28;20042;-76
2021/08/01 03:33:25;;;;;;;20.17;11.30;;;;;;;13.53;100.00;94804.31;5045725;28;20044;-76
2021/08/01 03:35:51;;;;;;;19.60;11.70;;;;;;;13.37;100.00;94805.81;5050503;28;20491;-76
2021/08/01 03:38:16;;;;;;;25.83;11.65;;;;;;;13.51;100.00;94684.91;5039883;28;20056;-78
2021/08/01 03:40:42;;;;;;;15.40;9.88;;;;;;;13.30;100.00;94714.53;5045564;28;20045;-78
2021/08/01 03:43:08;;;;;;;17.52;8.95;;;;;;;13.26;100.00;94747.13;5049429;28;20041;-76
2021/08/01 03:45:34;;;;;;;15.13;7.60;;;;;;;13.23;100.00;94727.41;5053813;28;20124;-78
2021/08/01 03:47:59;;;;;;;15.23;8.02;;;;;;;13.26;100.00;94731.28;5045319;28;20072;-77
2021/08/01 03:50:25;;;;;;;15.63;7.43;;;;;;;13.23;100.00;94737.19;5046984;28;20747;-77
2021/08/01 03:52:50;;;;;;;9.77;5.53;;;;;;;13.25;100.00;94725.22;5058689;28;20037;-77
2021/08/01 03:55:16;;;;;;;9.25;5.53;;;;;;;13.31;100.00;94729.28;5047636;28;20064;-77
2021/08/01 03:57:41;;;;;;;12.15;5.00;;;;;;;13.17;100.00;94723.31;5038781;28;20041;-77
2021/08/01 04:00:08;;;;;;;10.38;5.20;;;;;;;13.22;100.00;94733.00;5038696;28;20056;-77
2021/08/01 04:02:35;;;;;;;11.25;5.72;;;;;;;13.13;100.00;94735.56;5038678;28;20037;-76
2021/08/01 04:05:01;;;;;;;12.02;6.38;;;;;;;13.25;100.00;94743.72;5041981;28;20046;-77
2021/08/01 04:07:26;;;;;;;8.50;5.43;;;;;;;13.26;100.00;94755.84;5038746;28;20127;-78
2021/08/01 04:09:52;;;;;;;8.23;5.15;;;;;;;13.29;100.00;94749.97;5048627;28;20046;-76
2021/08/01 04:12:19;;;;;;;8.02;3.95;;;;;;;13.20;100.00;94751.78;5055298;28;20519;-76
2021/08/01 04:14:44;;;;;;;7.82;3.80;;;;;;;13.25;100.00;94782.59;5051551;28;20044;-76
2021/08/01 04:17:10;;;;;;;9.20;3.65;;;;;;;13.15;100.00;94796.81;5050136;28;20049;-77
2021/08/01 04:19:36;;;;;;;8.05;4.10;;;;;;;13.20;100.00;94809.13;5037736;28;20048;-76
2021/08/01 04:22:02;;;;;;;5.95;3.70;;;;;;;13.15;100.00;94810.81;5042838;28;20041;-77
2021/08/01 04:24:28;;;;;;;6.45;4.30;;;;;;;12.99;100.00;94807.75;5039225;28;20045;-78
2021/08/01 04:26:54;;;;;;;5.88;4.20;;;;;;;13.12;100.00;94800.84;5059409;28;20063;-77
2021/08/01 04:29:19;;;;;;;7.03;4.75;;;;;;;13.01;100.00;94788.97;5065758;28;20372;-77
2021/08/01 04:31:45;;;;;;;6.00;4.13;;;;;;;13.06;100.00;94802.06;5060708;28;20086;-77
2021/08/01 04:34:11;;;;;;;8.82;4.88;;;;;;;13.12;100.00;94815.94;5061865;28;20067;-77
2021/08/01 04:36:37;;;;;;;6.78;4.53;;;;;;;13.05;100.00;94810.28;5054742;28;20044;-78
2021/08/01 04:39:03;;;;;;;7.85;4.32;;;;;;;13.01;100.00;94815.38;5054165;28;20056;-77
2021/08/01 04:41:28;;;;;;;7.45;4.82;;;;;;;13.07;100.00;94816.81;5036922;28;20045;-77
2021/08/01 04:43:54;;;;;;;8.18;4.32;;;;;;;12.96;100.00;94824.22;5035746;28;20037;-77
2021/08/01 04:46:19;;;;;;;9.00;5.07;;;;;;;12.96;100.00;94807.59;5034870;28;20470;-79
2021/08/01 04:48:45;;;;;;;9.07;5.32;;;;;;;13.03;100.00;94807.16;5051778;28;20043;-78
2021/08/01 04:51:10;;;;;;;9.55;5.13;;;;;;;13.05;100.00;94810.28;5054141;28;20116;-78
2021/08/01 04:53:36;;;;;;;6.78;4.72;;;;;;;12.97;100.00;94815.22;5048744;28;20490;-78
2021/08/01 04:56:02;;;;;;;9.68;5.30;;;;;;;12.99;100.00;94813.03;5055000;28;20053;-78
2021/08/01 04:58:27;;;;;;;8.82;5.22;;;;;;;13.02;100.00;94805.63;5036009;28;20034;-77
2021/08/01 05:00:53;;;;;;;7.03;4.70;;;;;;;13.14;100.00;94813.75;5037767;28;20400;-78
2021/08/01 05:03:18;;;;;;;6.75;4.35;;;;;;;12.99;100.00;94818.31;5037530;28;20517;-77
2021/08/01 05:05:44;;;;;;;8.20;4.80;;;;;;;13.12;100.00;94815.94;5038358;28;20415;-78
2021/08/01 05:08:09;;;;;;;6.45;4.30;;;;;;;13.17;100.00;94823.72;5049610;28;20056;-77
2021/08/01 05:10:35;;;;;;;7.75;4.07;;;;;;;13.09;100.00;94829.75;5060768;28;20088;-78
2021/08/01 05:13:05;;;;;;;8.95;3.80;;;;;;;13.05;100.00;94840.13;5053824;28;20040;-79
2021/08/01 05:15:30;;;;;;;8.30;4.07;;;;;;;12.99;100.00;94850.03;5059141;28;20040;-79
2021/08/01 05:17:56;;;;;;;11.18;3.88;;;;;;;13.02;100.00;94859.22;5044639;28;20033;-78
2021/08/01 05:20:21;;;;;;;6.22;3.75;;;;;;;13.08;100.00;94863.28;5036828;28;20041;-77
2021/08/01 05:22:47;;;;;;;6.60;4.00;;;;;;;13.05;100.00;94863.13;5042470;28;20517;-78
2021/08/01 05:25:12;;;;;;;7.82;4.03;;;;;;;12.95;100.00;94870.19;5048140;28;20038;-77
2021/08/01 05:27:38;;;;;;;7.03;3.83;;;;;;;12.96;100.00;94876.25;5074721;28;20044;-77
2021/08/01 05:30:04;;;;;;;7.03;3.85;;;;;;;12.94;100.00;94884.50;5057201;28;20768;-77
2021/08/01 05:32:33;;;;;;;6.20;4.05;;;;;;;13.00;100.00;94893.84;5045268;28;20048;-77
2021/08/01 05:34:59;;;;;;;6.78;3.90;;;;;;;13.00;100.00;94893.84;5054032;28;20079;-78
2021/08/01 05:37:25;;;;;;;7.15;4.00;;;;;;;13.04;100.00;94909.88;5055766;28;20041;-78
2021/08/01 05:39:50;;;;;;;6.43;3.97;;;;;;;12.91;100.00;94900.91;5045443;28;20030;-78
2021/08/01 05:42:18;;;;;;;8.73;4.28;;;;;;;12.85;100.00;94914.53;5041623;28;20047;-79
2021/08/01 05:44:44;;;;;;;9.85;4.43;;;;;;;12.88;100.00;94917.34;5047590;28;20041;-79
2021/08/01 05:47:10;;;;;;;7.25;4.35;;;;;;;12.90;100.00;94912.56;5038618;28;20581;-79
2021/08/01 05:49:35;;;;;;;9.07;4.57;;;;;;;12.99;100.00;94926.63;5035105;28;20041;-78
2021/08/01 05:52:02;;;;;;;6.88;4.47;;;;;;;12.87;100.00;94920.28;5036315;28;20042;-78
2021/08/01 05:54:27;;;;;;;6.68;4.25;;;;;;;12.95;100.00;94923.00;5034328;28;20047;-78
2021/08/01 05:56:53;;;;;;;7.93;4.70;;;;;;;12.90;100.00;94920.50;5040946;28;20037;-78
2021/08/01 05:59:18;;;;;;;10.38;5.00;;;;;;;12.93;100.00;94919.88;5047369;28;20794;-76
2021/08/01 06:01:44;;;;;;;7.88;5.00;;;;;;;13.03;100.00;94918.09;5047351;28;20418;-77
2021/08/01 06:04:09;;;;;;;12.50;5.05;;;;;;;12.87;100.00;94921.06;5042977;28;20048;-78
2021/08/01 06:06:35;;;;;;;11.30;5.10;;;;;;;12.98;100.00;94927.69;5034100;28;20115;-78
2021/08/01 06:09:02;;;;;;;7.72;4.50;;;;;;;12.88;100.00;94930.56;5040391;28;20045;-77
2021/08/01 06:11:28;;;;;;;8.00;5.00;;;;;;;12.89;100.00;94929.47;5038054;28;20041;-78
2021/08/01 06:13:54;;;;;;;8.82;4.90;;;;;;;12.90;100.00;94946.91;5038397;28;20052;-77
2021/08/01 06:16:19;;;;;;;8.80;4.85;;;;;;;12.80;100.00;94941.81;5039399;28;20529;-77
2021/08/01 06:18:45;;;;;;;7.57;4.70;;;;;;;12.80;100.00;94941.81;5035219;28;20036;-78
2021/08/01 06:21:16;;;;;;;8.23;4.97;;;;;;;12.76;100.00;94946.16;5047756;28;20049;-76
2021/08/01 06:23:44;;;;;;;10.38;5.28;;;;;;;12.87;100.00;94944.84;5050995;28;20041;-78
2021/08/01 06:26:11;;;;;;;6.55;4.82;;;;;;;12.94;100.00;94950.50;5042672;28;20625;-77
2021/08/01 06:28:37;;;;;;;10.10;4.88;;;;;;;12.77;100.00;94945.06;5041026;28;20207;-78
2021/08/01 06:31:04;;;;;;;7.43;4.80;;;;;;;12.87;100.00;94957.25;5046355;28;20151;-78
2021/08/01 06:33:30;;;;;;;11.25;5.10;;;;;;;12.92;100.00;94959.81;5040325;28;20469;-77
2021/08/01 06:35:56;;;;;;;12.25;4.93;;;;;;;13.00;100.00;94962.53;5037685;28;20044;-78
2021/08/01 06:38:23;;;;;;;8.55;4.82;;;;;;;12.91;100.00;94969.56;5031438;28;20130;-79
2021/08/01 06:40:48;;;;;;;7.47;4.85;;;;;;;12.94;100.00;94969.00;5057080;28;20041;-77
2021/08/01 06:43:14;;;;;;;9.65;4.95;;;;;;;13.20;100.00;94968.41;5044223;28;20041;-77
2021/08/01 06:45:39;;;;;;;9.70;5.32;;;;;;;13.21;100.00;94956.78;5053902;28;20119;-77
2021/08/01 06:48:06;;;;;;;7.38;5.18;;;;;;;13.38;100.00;94968.59;5044513;28;20049;-77
2021/08/01 06:50:33;;;;;;;7.70;4.63;;;;;;;13.30;100.00;94960.28;5035978;28;20042;-77
2021/08/01 06:52:59;;;;;;;7.35;4.95;;;;;;;13.46;100.00;94967.84;5032312;28;20049;-77
2021/08/01 06:55:24;;;;;;;8.15;4.55;;;;;;;13.63;99.75;94962.72;5045641;28;20072;-77
2021/08/01 06:57:50;;;;;;;11.40;4.90;;;;;;;13.64;99.53;94969.53;5039292;28;20072;-78
2021/08/01 07:00:20;;;;;;;7.57;4.90;;;;;;;13.64;99.22;94977.47;5051201;28;20049;-77
2021/08/01 07:02:59;;;;;;;7.00;4.40;;;;;;;13.81;97.32;94976.03;5060213;28;20038;-77
2021/08/01 07:05:26;;;;;;;11.25;5.07;;;;;;;13.73;100.00;94971.47;5049621;28;20048;-77
2021/08/01 07:07:52;;;;;;;8.65;4.53;;;;;;;13.91;99.52;94983.69;5043128;28;20033;-78
2021/08/01 07:10:18;;;;;;;6.07;4.55;;;;;;;13.83;98.49;94987.88;5037836;28;20052;-77
2021/08/01 07:12:44;;;;;;;7.13;4.78;;;;;;;13.87;97.02;94988.03;5043249;28;20048;-77
2021/08/01 07:15:24;;;;;;;9.88;4.72;;;;;;;13.98;98.50;94989.34;5057051;28;20056;-77
2021/08/01 07:17:57;;;;;;;7.13;4.18;;;;;;;13.87;94.08;94998.63;5051335;28;20503;-77
2021/08/01 07:20:24;;;;;;;7.55;4.32;;;;;;;13.78;95.13;94989.84;5042042;28;20064;-76
2021/08/01 07:22:51;;;;;;;7.55;4.55;;;;;;;13.84;96.97;94983.34;5045841;28;20041;-77
2021/08/01 07:25:17;;;;;;;9.68;4.72;;;;;;;14.07;97.37;94996.56;5037746;28;20044;-77
2021/08/01 07:27:43;;;;;;;7.68;4.53;;;;;;;13.94;94.83;94987.63;5052329;28;20143;-79
2021/08/01 07:30:09;;;;;;;6.72;4.50;;;;;;;13.99;95.05;94987.47;5051138;28;20665;-77
2021/08/01 07:32:35;;;;;;;6.97;4.43;;;;;;;14.03;96.53;94980.50;5049411;28;20040;-76
2021/08/01 07:35:01;;;;;;;9.07;5.53;;;;;;;14.03;96.85;94981.25;5039460;28;20045;-77
2021/08/01 07:37:26;;;;;;;9.82;4.65;;;;;;;13.98;92.95;94978.75;5042885;28;20071;-78
2021/08/01 07:39:52;;;;;;;6.07;4.30;;;;;;;13.96;92.98;94980.91;5047493;28;20037;-78
2021/08/01 07:42:17;;;;;;;7.68;4.63;;;;;;;14.14;93.68;94987.09;5043153;28;20041;-77
2021/08/01 07:44:46;;;;;;;8.25;4.72;;;;;;;14.19;94.18;94986.97;5041979;28;20057;-77
2021/08/01 07:47:17;;;;;;;7.63;4.70;;;;;;;14.20;91.87;94990.38;5046129;28;20046;-77
2021/08/01 07:49:44;;;;;;;7.57;4.40;;;;;;;14.18;92.11;94998.63;5035073;28;20056;-78
2021/08/01 07:52:12;;;;;;;9.60;4.80;;;;;;;14.48;92.79;94995.47;5035526;28;20044;-77
2021/08/01 07:54:38;;;;;;;7.25;4.65;;;;;;;14.50;92.25;94998.59;5035104;28;20046;-78
2021/08/01 07:57:05;;;;;;;8.82;4.47;;;;;;;14.54;89.52;94999.56;5055157;28;20048;-78
2021/08/01 07:59:30;;;;;;;8.98;4.60;;;;;;;14.41;91.03;94995.13;5059613;28;20485;-77
2021/08/01 08:01:56;;;;;;;9.20;4.90;;;;;;;14.30;91.75;94995.41;5056246;28;20051;-78
2021/08/01 08:04:22;;;;;;;12.05;4.75;;;;;;;14.10;90.66;94998.59;5041324;28;20705;-77
2021/08/01 08:06:48;;;;;;;7.18;4.60;;;;;;;14.30;90.93;94998.06;5036398;28;20041;-76
2021/08/01 08:09:14;;;;;;;8.20;4.25;;;;;;;14.48;91.93;95000.75;5052836;28;20042;-77
2021/08/01 08:11:39;;;;;;;8.98;4.93;;;;;;;14.48;91.68;95000.75;5055860;28;20041;-77
2021/08/01 08:14:05;;;;;;;7.85;4.70;;;;;;;14.41;90.71;94995.13;5042851;28;20080;-78
2021/08/01 08:16:33;;;;;;;9.55;4.80;;;;;;;14.35;90.94;94986.53;5056733;28;20041;-77
2021/08/01 08:18:59;;;;;;;7.78;4.47;;;;;;;14.36;89.27;94978.28;5050721;28;20481;-78
2021/08/01 08:21:26;;;;;;;10.13;4.50;;;;;;;14.56;88.69;94981.47;5063411;28;20052;-80
2021/08/01 08:23:53;;;;;;;8.40;4.55;;;;;;;14.63;88.30;94976.53;5049509;28;20106;-77
2021/08/01 08:26:19;;;;;;;10.73;5.20;;;;;;;14.58;91.50;94979.28;5050866;28;20049;-77
2021/08/01 08:28:44;;;;;;;11.68;4.72;;;;;;;14.56;89.79;94971.66;5055677;28;20048;-77
2021/08/01 08:31:10;;;;;;;10.63;5.35;;;;;;;14.89;91.55;94975.81;5040892;28;20422;-78
2021/08/01 08:33:37;;;;;;;8.30;4.47;;;;;;;14.80;91.42;94969.75;5035509;28;20041;-77
2021/08/01 08:36:02;;;;;;;7.68;4.28;;;;;;;15.05;85.13;94965.56;5037145;28;20033;-79
2021/08/01 08:38:28;;;;;;;10.02;4.50;;;;;;;14.97;86.62;94969.75;5036864;28;20057;-77
2021/08/01 08:40:54;;;;;;;7.90;4.40;;;;;;;15.27;84.95;94977.88;5034872;28;20041;-77
2021/08/01 08:43:19;;;;;;;8.10;4.28;;;;;;;15.27;85.43;94977.88;5036771;28;20041;-76
2021/08/01 08:45:45;;;;;;;8.57;4.10;;;;;;;15.30;84.10;94987.88;5041196;28;20076;-78
2021/08/01 08:48:12;;;;;;;6.40;4.38;;;;;;;15.11;87.78;94995.31;5035488;28;20124;-78
2021/08/01 08:50:40;;;;;;;9.82;5.35;;;;;;;14.79;85.80;94989.34;5037069;28;20037;-79
2021/08/01 08:53:06;;;;;;;8.73;4.60;;;;;;;15.12;85.91;94991.59;5038880;28;20040;-77
2021/08/01 08:55:34;;;;;;;11.50;4.78;;;;;;;14.73;86.28;94986.84;5038034;28;20040;-78
2021/08/01 08:58:03;;;;;;;9.68;4.40;;;;;;;14.72;86.99;94985.31;5049412;28;20049;-77
2021/08/01 09:00:31;;;;;;;8.13;4.70;;;;;;;14.92;88.87;94988.44;5055568;28;20055;-77
2021/08/01 09:02:56;;;;;;;7.80;4.63;;;;;;;14.85;87.17;94990.78;5036441;28;20091;-76
2021/08/01 09:05:22;;;;;;;7.45;4.88;;;;;;;15.00;87.41;94990.34;5038138;28;20543;-77
2021/08/01 09:07:48;;;;;;;8.95;4.32;;;;;;;15.07;87.04;95001.25;5037088;28;20064;-78
2021/08/01 09:10:17;;;;;;;9.60;4.20;;;;;;;15.26;84.61;94997.53;5039217;28;20033;-76
2021/08/01 09:12:54;;;;;;;8.50;4.60;;;;;;;15.35;84.70;95000.94;5040591;28;20044;-76
2021/08/01 09:15:25;;;;;;;7.78;4.85;;;;;;;15.51;84.95;94997.84;5036139;28;20050;-78
2021/08/01 09:17:55;;;;;;;7.95;4.72;;;;;;;15.34;88.45;95004.72;5035354;28;20046;-77
2021/08/01 09:20:25;;;;;;;8.27;4.50;;;;;;;15.44;83.05;95002.84;5062781;28;20059;-77
2021/08/01 09:23:06;;;;;;;8.20;4.65;;;;;;;15.56;83.67;95005.66;5044941;28;20091;-77
2021/08/01 09:25:41;;;;;;;8.90;4.45;;;;;;;15.36;85.37;95002.53;5035448;28;20037;-78
2021/08/01 09:28:20;;;;;;;8.35;4.15;;;;;;;15.64;81.78;95007.50;5042491;28;20120;-79
2021/08/01 09:30:54;;;;;;;7.43;4.47;;;;;;;15.57;83.33;95007.19;5043292;28;20037;-77
2021/08/01 09:33:40;;;;;;;7.78;4.15;;;;;;;15.51;82.24;95006.56;5045824;28;20049;-77
2021/08/01 09:36:16;;;;;;;6.25;4.35;;;;;;;15.50;84.73;94996.25;5037248;28;20045;-80
2021/08/01 09:38:48;;;;;;;7.80;4.47;;;;;;;15.51;84.16;94997.84;5038195;28;20048;-78
2021/08/01 09:41:17;;;;;;;10.20;4.93;;;;;;;15.54;84.77;94998.00;5033169;28;20056;-77
2021/08/01 09:43:45;;;;;;;8.02;4.80;;;;;;;15.75;84.50;94990.16;5045069;28;20526;-79
2021/08/01 09:46:10;;;;;;;12.93;4.75;;;;;;;16.01;83.36;94989.34;5037079;28;20045;-77
2021/08/01 09:48:36;;;;;;;8.65;4.70;;;;;;;16.08;83.49;94989.66;5040408;28;20483;-77
2021/08/01 09:51:04;;;;;;;7.90;4.90;;;;;;;16.10;81.95;94982.16;5033428;28;20038;-77
2021/08/01 09:53:31;;;;;;;8.95;4.82;;;;;;;15.98;81.82;94992.66;5043544;28;20045;-78
2021/08/01 09:56:12;;;;;;;7.15;4.30;;;;;;;16.06;80.52;94991.84;5038484;28;20040;-78
2021/08/01 09:58:38;;;;;;;8.77;4.38;;;;;;;15.80;82.60;94988.47;5045070;28;20056;-77
2021/08/01 10:01:04;;;;;;;10.95;4.82;;;;;;;15.69;81.69;94983.47;5041958;28;20115;-78
2021/08/01 10:03:39;;;;;;;7.53;4.43;;;;;;;15.71;85.10;94986.56;5052913;28;20089;-78
2021/08/01 10:06:17;;;;;;;9.30;4.72;;;;;;;15.88;86.21;94977.06;5044987;28;20102;-77
2021/08/01 10:08:50;;;;;;;9.65;4.70;;;;;;;15.79;84.38;94976.28;5055384;28;20526;-76
2021/08/01 10:11:17;;;;;;;11.60;5.13;;;;;;;15.91;84.11;94984.41;5048852;28;20037;-77
2021/08/01 10:13:45;;;;;;;9.07;4.63;;;;;;;15.98;87.19;94979.38;5044794;28;20040;-79
2021/08/01 10:16:11;;;;;;;7.80;4.45;;;;;;;16.25;82.96;94972.88;5040241;28;20045;-77
2021/08/01 10:18:39;;;;;;;10.55;4.13;;;;;;;16.15;81.33;94977.75;5035360;28;20049;-76
2021/08/01 10:21:06;;;;;;;6.63;4.25;;;;;;;16.08;83.46;94979.03;5033795;28;20050;-74
2021/08/01 10:23:40;;;;;;;6.95;4.05;;;;;;;16.29;81.18;94973.03;5040173;28;20650;-75
2021/08/01 10:26:08;;;;;;;7.15;4.07;;;;;;;16.28;81.24;94982.09;5045788;28;20048;-76
2021/08/01 10:28:36;;;;;;;6.85;3.90;;;;;;;15.92;79.54;94985.97;5040984;28;20241;-79
2021/08/01 10:31:04;;;;;;;6.45;3.95;;;;;;;15.80;78.22;94988.47;5041101;28;20437;-80
2021/08/01 10:33:52;;;;;;;8.43;4.00;;;;;;;15.57;80.84;94993.94;5048913;28;20095;-77
2021/08/01 10:36:24;;;;;;;7.82;4.10;;;;;;;15.70;80.17;95000.94;5034782;28;20068;-76
2021/08/01 10:38:52;;;;;;;7.55;4.18;;;;;;;15.65;81.49;94997.69;5045380;28;20060;-75
2021/08/01 10:41:21;;;;;;;7.15;4.32;;;;;;;15.82;83.38;94996.91;5054370;28;20048;-76
2021/08/01 10:43:48;;;;;;;6.78;4.05;;;;;;;15.61;80.60;94996.75;5052538;28;20045;-78
2021/08/01 10:46:19;;;;;;;9.13;4.80;;;;;;;15.35;83.95;94990.34;5040039;28;20041;-78
2021/08/01 10:48:46;;;;;;;9.95;4.80;;;;;;;15.18;83.43;94990.34;5044783;28;20112;-77
2021/08/01 10:51:12;;;;;;;8.27;4.88;;;;;;;15.06;86.13;94999.69;5049781;28;20068;-77
2021/08/01 10:53:38;;;;;;;7.32;4.85;;;;;;;15.12;87.27;94996.91;5033394;28;20123;-76
2021/08/01 10:56:07;;;;;;;9.95;4.85;;;;;;;14.96;87.67;95000.00;5036577;28;20045;-75
2021/08/01 10:58:37;;;;;;;12.45;5.05;;;;;;;15.11;86.21;94997.97;5041473;28;20086;-76
2021/08/01 11:01:04;;;;;;;10.48;4.72;;;;;;;15.22;87.04;95002.66;5035817;28;20042;-76
2021/08/01 11:03:35;;;;;;;9.10;4.60;;;;;;;15.09;86.65;94997.53;5035058;28;20037;-76
2021/08/01 11:06:01;;;;;;;9.70;5.20;;;;;;;15.41;86.91;95002.38;5037119;28;20226;-73
2021/08/01 11:08:27;;;;;;;11.80;5.30;;;;;;;15.61;87.72;95002.03;5031954;28;20462;-76
2021/08/01 11:11:16;;;;;;;11.85;6.15;;;;;;;15.57;90.10;95001.88;5030124;28;20044;-77
2021/08/01 11:13:43;;;;;;;10.25;5.10;;;;;;;15.62;89.57;95003.63;5033748;28;20058;-77
2021/08/01 11:16:11;;;;;;;9.80;4.85;;;;;;;15.64;87.48;95012.78;5031743;28;20045;-76
2021/08/01 11:18:42;;;;;;;9.00;4.80;;;;;;;15.44;83.14;95005.47;5032929;28;20043;-77
2021/08/01 11:21:10;;;;;;;7.55;4.32;;;;;;;15.47;83.75;95012.81;5034902;28;20034;-76
2021/08/01 11:23:44;;;;;;;12.40;4.45;;;;;;;15.24;85.49;95011.09;5040296;28;20047;-77
2021/08/01 11:26:15;;;;;;;10.32;4.65;;;;;;;15.51;84.07;95008.44;5030199;28;21656;-77